createdAt,value
2018-06-05T00:01:23.143Z,9.30
2018-06-05T00:03:51.400Z,9.27
2018-06-05T00:06:19.640Z,9.27
2018-06-05T00:08:47.857Z,7.90
2018-06-05T00:11:16.091Z,10.30
2018-06-05T00:13:44.754Z,9.90
2018-06-05T00:16:13.453Z,8.60
2018-06-05T00:18:41.673Z,10.10
2018-06-05T00:21:09.904Z,9.87
2018-06-05T00:23:38.220Z,10.30
2018-06-05T00:26:06.527Z,10.03
2018-06-05T00:28:34.798Z,9.93
2018-06-05T00:31:03.081Z,10.33
2018-06-05T00:33:31.391Z,11.00
2018-06-05T00:35:59.589Z,10.00
2018-06-05T00:38:27.979Z,11.30
2018-06-05T00:40:56.350Z,11.00
2018-06-05T00:43:24.607Z,11.03
2018-06-05T00:45:52.845Z,9.60
2018-06-05T00:48:21.113Z,10.40
2018-06-05T00:50:49.622Z,11.67
2018-06-05T00:53:17.858Z,11.47
2018-06-05T00:55:46.151Z,11.07
2018-06-05T00:58:14.404Z,10.60
2018-06-05T01:00:42.704Z,11.67
2018-06-05T01:03:11.807Z,9.83
2018-06-05T01:05:40.090Z,12.47
2018-06-05T01:08:08.315Z,11.37
2018-06-05T01:10:36.528Z,10.70
2018-06-05T01:13:04.821Z,10.70
2018-06-05T01:15:33.107Z,10.73
2018-06-05T01:18:01.355Z,11.00
2018-06-05T01:20:29.599Z,10.63
2018-06-05T01:22:57.833Z,11.10
2018-06-05T01:25:26.080Z,11.53
2018-06-05T01:27:55.376Z,11.73
2018-06-05T01:30:23.589Z,11.40
2018-06-05T01:32:51.924Z,12.67
2018-06-05T01:35:20.204Z,10.63
2018-06-05T01:37:48.476Z,12.20
2018-06-05T01:40:16.755Z,10.47
2018-06-05T01:42:45.000Z,11.00
2018-06-05T01:45:13.235Z,10.97
2018-06-05T01:47:41.537Z,11.00
2018-06-05T01:50:09.785Z,10.90
2018-06-05T01:52:38.159Z,12.60
2018-06-05T01:55:06.455Z,12.10
2018-06-05T01:57:34.662Z,12.43
2018-06-05T02:00:02.635Z,11.20
2018-06-05T02:02:30.952Z,11.27
2018-06-05T02:04:59.912Z,11.27
2018-06-05T02:07:28.151Z,11.40
2018-06-05T02:09:56.453Z,11.80
2018-06-05T02:12:24.692Z,11.00
2018-06-05T02:14:52.939Z,11.37
2018-06-05T02:17:21.196Z,13.57
2018-06-05T02:19:49.456Z,13.30
2018-06-05T02:22:18.230Z,13.10
2018-06-05T02:24:46.446Z,13.23
2018-06-05T02:27:14.636Z,13.03
2018-06-05T02:29:42.903Z,12.87
2018-06-05T02:32:11.293Z,13.27
2018-06-05T02:34:39.590Z,12.67
2018-06-05T02:37:07.776Z,12.73
2018-06-05T02:39:35.988Z,13.63
2018-06-05T02:42:04.372Z,11.93
2018-06-05T02:44:32.590Z,11.90
2018-06-05T02:47:00.793Z,11.90
2018-06-05T02:49:28.789Z,11.10
2018-06-05T02:51:57.105Z,12.47
2018-06-05T02:54:25.595Z,13.23
2018-06-05T02:56:53.916Z,12.20
2018-06-05T02:59:22.140Z,13.60
2018-06-05T03:01:50.616Z,13.47
2018-06-05T03:04:18.867Z,14.13
2018-06-05T03:06:47.147Z,12.83
2018-06-05T03:09:15.159Z,12.83
2018-06-05T03:11:43.448Z,14.17
2018-06-05T03:14:11.720Z,12.60
2018-06-05T03:16:39.995Z,12.77
2018-06-05T03:19:08.271Z,12.53
2018-06-05T03:21:36.497Z,13.63
2018-06-05T03:24:04.825Z,14.03
2018-06-05T03:26:33.117Z,12.43
2018-06-05T03:29:01.365Z,13.10
2018-06-05T03:31:29.671Z,14.07
2018-06-05T03:33:57.985Z,12.40
2018-06-05T03:36:26.708Z,13.20
2018-06-05T03:38:55.016Z,13.43
2018-06-05T03:41:23.306Z,14.50
2018-06-05T03:43:51.641Z,14.07
2018-06-05T03:46:19.947Z,15.30
2018-06-05T03:48:48.215Z,14.57
2018-06-05T03:51:16.466Z,11.90
2018-06-05T03:53:44.730Z,14.80
2018-06-05T03:56:13.137Z,13.87
2018-06-05T03:58:41.423Z,13.60
2018-06-05T04:01:09.687Z,13.77
2018-06-05T04:03:37.942Z,15.33
2018-06-05T04:06:06.192Z,15.50
2018-06-05T04:08:34.456Z,16.17
2018-06-05T04:11:02.729Z,15.27
2018-06-05T04:13:31.034Z,15.63
2018-06-05T04:15:59.256Z,14.00
2018-06-05T04:18:27.959Z,14.90
2018-06-05T04:20:56.257Z,15.60
2018-06-05T04:23:24.481Z,15.57
2018-06-05T04:25:53.318Z,14.10
2018-06-05T04:28:21.561Z,15.80
2018-06-05T04:30:49.867Z,16.20
2018-06-05T04:33:18.111Z,15.70
2018-06-05T04:35:46.411Z,15.70
2018-06-05T04:38:14.675Z,14.13
2018-06-05T04:40:42.908Z,15.77
2018-06-05T04:43:11.238Z,14.40
2018-06-05T04:45:39.622Z,14.10
2018-06-05T04:48:07.873Z,18.10
2018-06-05T04:50:36.131Z,17.63
2018-06-05T04:53:04.456Z,16.93
2018-06-05T04:55:32.755Z,15.80
2018-06-05T04:58:01.055Z,15.33
2018-06-05T05:00:29.267Z,15.47
2018-06-05T05:02:57.516Z,16.23
2018-06-05T05:05:25.839Z,15.90
2018-06-05T05:07:53.863Z,16.80
2018-06-05T05:10:22.226Z,16.77
2018-06-05T05:12:51.139Z,15.20
2018-06-05T05:15:19.366Z,15.63
2018-06-05T05:17:47.663Z,16.10
2018-06-05T05:20:16.002Z,15.40
2018-06-05T05:22:44.343Z,15.83
2018-06-05T05:25:13.647Z,16.83
2018-06-05T05:27:41.924Z,17.07
2018-06-05T05:30:10.153Z,16.77
2018-06-05T05:32:38.368Z,16.70
2018-06-05T05:35:06.670Z,16.23
2018-06-05T05:37:35.383Z,17.10
2018-06-05T05:40:03.588Z,15.90
2018-06-05T05:42:33.854Z,17.00
2018-06-05T05:45:02.201Z,17.40
2018-06-05T05:47:30.431Z,15.67
2018-06-05T05:49:58.699Z,16.30
2018-06-05T05:52:26.988Z,15.13
2018-06-05T05:54:55.228Z,16.07
2018-06-05T05:57:23.504Z,14.00
2018-06-05T05:59:51.814Z,15.47
2018-06-05T06:02:20.064Z,16.23
2018-06-05T06:04:48.321Z,14.93
2018-06-05T06:07:16.702Z,13.70
2018-06-05T06:09:47.071Z,14.23
2018-06-05T06:12:15.386Z,14.37
2018-06-05T06:14:44.065Z,16.13
2018-06-05T06:17:12.295Z,14.67
2018-06-05T06:19:40.551Z,15.07
2018-06-05T06:22:08.849Z,15.00
2018-06-05T06:24:37.096Z,15.73
2018-06-05T06:27:05.393Z,14.03
2018-06-05T06:29:33.757Z,15.00
2018-06-05T06:32:01.982Z,13.80
2018-06-05T06:34:30.211Z,14.30
2018-06-05T06:36:58.521Z,14.23
2018-06-05T06:39:26.852Z,13.70
2018-06-05T06:41:55.120Z,14.63
2018-06-05T06:44:23.688Z,14.23
2018-06-05T06:46:51.960Z,15.17
2018-06-05T06:49:20.268Z,14.63
2018-06-05T06:51:48.477Z,14.33
2018-06-05T06:54:16.735Z,14.80
2018-06-05T06:56:45.081Z,16.37
2018-06-05T06:59:13.344Z,17.30
2018-06-05T07:01:41.639Z,15.77
2018-06-05T07:04:09.911Z,15.93
2018-06-05T07:06:38.168Z,16.13
2018-06-05T07:09:08.229Z,16.37
2018-06-05T07:11:37.241Z,16.87
2018-06-05T07:14:05.627Z,15.67
2018-06-05T07:16:33.861Z,15.77
2018-06-05T07:19:02.167Z,13.27
2018-06-05T07:21:30.413Z,14.90
2018-06-05T07:23:58.760Z,16.10
2018-06-05T07:26:27.036Z,15.97
2018-06-05T07:28:55.308Z,16.00
2018-06-05T07:31:23.545Z,15.23
2018-06-05T07:33:52.800Z,14.10
2018-06-05T07:36:21.071Z,15.30
2018-06-05T07:38:49.389Z,13.63
2018-06-05T07:41:17.406Z,14.73
2018-06-05T07:43:45.874Z,14.20
2018-06-05T07:46:14.127Z,13.80
2018-06-05T07:48:42.415Z,15.37
2018-06-05T07:51:10.729Z,16.40
2018-06-05T07:53:38.967Z,13.80
2018-06-05T07:56:07.204Z,14.40
2018-06-05T07:58:35.440Z,12.70
2018-06-05T08:01:03.685Z,15.23
2018-06-05T08:03:31.997Z,13.60
2018-06-05T08:06:00.287Z,13.77
2018-06-05T08:08:28.531Z,12.80
2018-06-05T08:10:56.836Z,14.20
2018-06-05T08:13:25.156Z,14.07
2018-06-05T08:15:54.248Z,12.27
2018-06-05T08:18:22.495Z,14.00
2018-06-05T08:20:50.727Z,13.83
2018-06-05T08:23:19.004Z,14.50
2018-06-05T08:25:47.326Z,16.20
2018-06-05T08:28:15.655Z,14.30
2018-06-05T08:30:44.078Z,12.10
2018-06-05T08:33:12.308Z,13.90
2018-06-05T08:35:40.621Z,12.50
2018-06-05T08:38:08.866Z,14.87
2018-06-05T08:40:37.223Z,14.27
2018-06-05T08:43:05.513Z,12.83
2018-06-05T08:45:33.785Z,13.47
2018-06-05T08:48:02.035Z,12.97
2018-06-05T08:50:30.317Z,14.07
2018-06-05T08:52:58.586Z,13.30
2018-06-05T08:55:26.883Z,12.70
2018-06-05T08:57:55.198Z,12.97
2018-06-05T09:00:23.183Z,13.20
2018-06-05T09:02:51.796Z,12.57
2018-06-05T09:05:20.087Z,12.90
2018-06-05T09:07:48.298Z,14.03
2018-06-05T09:10:16.564Z,13.60
2018-06-05T09:12:44.969Z,15.40
2018-06-05T09:15:13.209Z,13.90
2018-06-05T09:17:41.541Z,13.70
2018-06-05T09:20:09.775Z,12.83
2018-06-05T09:22:38.079Z,14.63
2018-06-05T09:25:06.331Z,14.43
2018-06-05T09:27:34.574Z,13.07
2018-06-05T09:30:02.856Z,12.20
2018-06-05T09:32:31.135Z,12.77
2018-06-05T09:34:59.410Z,14.00
2018-06-05T09:37:27.690Z,15.03
2018-06-05T09:39:55.931Z,13.00
2018-06-05T09:42:24.220Z,13.87
2018-06-05T09:44:53.079Z,12.13
2018-06-05T09:47:21.376Z,12.90
2018-06-05T09:49:49.643Z,13.03
2018-06-05T09:52:17.877Z,13.67
2018-06-05T09:54:46.165Z,13.10
2018-06-05T09:57:14.411Z,12.63
2018-06-05T09:59:42.673Z,13.00
2018-06-05T10:02:10.887Z,13.33
2018-06-05T10:04:39.116Z,13.10
2018-06-05T10:07:07.435Z,13.97
2018-06-05T10:09:35.677Z,13.70
2018-06-05T10:12:03.962Z,12.63
2018-06-05T10:14:32.188Z,13.43
2018-06-05T10:17:00.392Z,13.67
2018-06-05T10:19:28.458Z,12.97
2018-06-05T10:21:56.750Z,11.97
2018-06-05T10:24:25.042Z,11.57
2018-06-05T10:26:53.257Z,13.50
2018-06-05T10:29:21.458Z,13.20
2018-06-05T10:31:49.755Z,11.90
2018-06-05T10:34:18.087Z,11.93
2018-06-05T10:36:46.360Z,11.80
2018-06-05T10:39:14.576Z,10.30
2018-06-05T10:41:42.815Z,11.20
2018-06-05T10:44:11.091Z,10.83
2018-06-05T10:46:39.462Z,11.70
2018-06-05T10:49:07.713Z,12.17
2018-06-05T10:51:36.031Z,11.13
2018-06-05T10:54:04.269Z,12.10
2018-06-05T10:56:32.627Z,10.80
2018-06-05T10:59:00.869Z,12.07
2018-06-05T11:01:28.863Z,10.90
2018-06-05T11:03:58.311Z,11.43
2018-06-05T11:06:26.581Z,11.87
2018-06-05T11:08:54.870Z,12.77
2018-06-05T11:11:23.119Z,12.60
2018-06-05T11:13:51.352Z,12.60
2018-06-05T11:16:19.599Z,12.43
2018-06-05T11:18:47.835Z,11.63
2018-06-05T11:21:16.112Z,12.00
2018-06-05T11:23:44.350Z,12.67
2018-06-05T11:26:12.611Z,11.80
2018-06-05T11:28:40.895Z,12.20
2018-06-05T11:31:09.138Z,11.73
2018-06-05T11:33:37.425Z,12.20
2018-06-05T11:36:05.732Z,11.27
2018-06-05T11:38:33.976Z,12.27
2018-06-05T11:41:02.255Z,11.27
2018-06-05T11:43:30.489Z,11.27
2018-06-05T11:45:58.810Z,12.27
2018-06-05T11:48:27.082Z,10.83
2018-06-05T11:50:55.319Z,10.97
2018-06-05T11:53:23.590Z,9.90
2018-06-05T11:55:52.053Z,11.30
2018-06-05T11:58:20.400Z,10.63
2018-06-05T12:00:48.699Z,10.93
2018-06-05T12:03:16.694Z,10.00
2018-06-05T12:05:45.651Z,9.50
2018-06-05T12:08:13.907Z,9.10
2018-06-05T12:10:42.214Z,8.93
2018-06-05T12:13:10.479Z,9.63
2018-06-05T12:15:38.727Z,10.30
2018-06-05T12:18:07.435Z,10.43
2018-06-05T12:20:35.687Z,10.37
2018-06-05T12:23:04.053Z,9.23
2018-06-05T12:25:32.329Z,9.17
2018-06-05T12:28:00.539Z,9.93
2018-06-05T12:30:28.755Z,8.77
2018-06-05T12:32:57.065Z,8.33
2018-06-05T12:35:25.427Z,9.10
2018-06-05T12:37:53.796Z,8.83
2018-06-05T12:40:22.077Z,8.00
2018-06-05T12:42:50.300Z,8.03
2018-06-05T12:45:18.586Z,7.10
2018-06-05T12:47:46.910Z,7.23
2018-06-05T12:50:15.160Z,7.47
2018-06-05T12:52:43.711Z,8.90
2018-06-05T12:55:12.009Z,7.40
2018-06-05T12:57:40.275Z,8.00
2018-06-05T13:00:08.629Z,7.03
2018-06-05T13:02:36.876Z,7.93
2018-06-05T13:05:05.285Z,8.40
2018-06-05T13:07:33.603Z,7.67
2018-06-05T13:10:01.919Z,7.50
2018-06-05T13:12:30.215Z,7.70
2018-06-05T13:14:58.471Z,8.60
2018-06-05T13:17:26.719Z,7.60
2018-06-05T13:19:54.900Z,8.60
2018-06-05T13:22:23.194Z,8.70
2018-06-05T13:24:51.263Z,8.77
2018-06-05T13:27:19.519Z,8.20
2018-06-05T13:29:47.797Z,8.27
2018-06-05T13:32:16.018Z,8.17
2018-06-05T13:34:44.336Z,8.30
2018-06-05T13:37:12.688Z,8.00
2018-06-05T13:39:40.951Z,7.73
2018-06-05T13:42:09.766Z,7.67
2018-06-05T13:44:38.029Z,7.40
2018-06-05T13:47:06.317Z,6.90
2018-06-05T13:49:34.625Z,6.90
2018-06-05T13:52:02.890Z,7.30
2018-06-05T13:54:31.123Z,7.00
2018-06-05T13:56:59.400Z,7.70
2018-06-05T13:59:27.616Z,7.30
2018-06-05T14:01:55.966Z,7.13
2018-06-05T14:04:24.191Z,7.60
2018-06-05T14:06:52.408Z,6.87
2018-06-05T14:09:20.822Z,7.57
2018-06-05T14:11:49.028Z,7.20
2018-06-05T14:14:17.343Z,6.80
2018-06-05T14:16:45.611Z,7.00
2018-06-05T14:19:13.904Z,6.33
2018-06-05T14:21:42.175Z,6.20
2018-06-05T14:24:10.387Z,7.23
2018-06-05T14:26:38.688Z,7.97
2018-06-05T14:29:06.954Z,7.60
2018-06-05T14:31:35.225Z,6.37
2018-06-05T14:34:04.253Z,7.47
2018-06-05T14:36:32.537Z,6.93
2018-06-05T14:39:00.632Z,7.63
2018-06-05T14:41:28.902Z,6.23
2018-06-05T14:43:57.206Z,7.20
2018-06-05T14:46:25.495Z,6.17
2018-06-05T14:48:53.753Z,6.80
2018-06-05T14:51:22.079Z,6.90
2018-06-05T14:53:50.347Z,6.07
2018-06-05T14:56:18.672Z,6.77
2018-06-05T14:58:46.955Z,6.23
2018-06-05T15:01:17.086Z,6.30
2018-06-05T15:03:45.390Z,6.67
2018-06-05T15:06:13.838Z,6.50
2018-06-05T15:08:42.152Z,5.93
2018-06-05T15:11:10.453Z,6.53
2018-06-05T15:13:38.704Z,6.50
2018-06-05T15:16:06.983Z,6.70
2018-06-05T15:18:35.232Z,6.20
2018-06-05T15:21:03.472Z,6.10
2018-06-05T15:23:31.765Z,5.70
2018-06-05T15:26:00.035Z,6.60
2018-06-05T15:28:28.393Z,6.30
2018-06-05T15:30:56.706Z,6.77
2018-06-05T15:33:24.961Z,6.07
2018-06-05T15:35:53.227Z,6.17
2018-06-05T15:38:21.506Z,5.37
2018-06-05T15:40:49.872Z,6.30
2018-06-05T15:43:18.155Z,6.93
2018-06-05T15:45:46.988Z,5.53
2018-06-05T15:48:15.216Z,5.67
2018-06-05T15:50:43.492Z,5.87
2018-06-05T15:53:12.332Z,6.77
2018-06-05T15:55:40.569Z,5.77
2018-06-05T15:58:08.800Z,6.80
2018-06-05T16:00:37.096Z,6.43
2018-06-05T16:03:05.428Z,6.83
2018-06-05T16:05:33.833Z,5.70
2018-06-05T16:08:02.415Z,6.97
2018-06-05T16:10:31.062Z,6.20
2018-06-05T16:12:59.306Z,5.80
2018-06-05T16:15:27.586Z,6.13
2018-06-05T16:17:55.864Z,6.10
2018-06-05T16:20:24.116Z,7.00
2018-06-05T16:22:52.351Z,6.10
2018-06-05T16:25:20.693Z,6.47
2018-06-05T16:27:48.960Z,6.37
2018-06-05T16:30:17.290Z,5.23
2018-06-05T16:32:45.614Z,5.00
2018-06-05T16:35:13.905Z,5.50
2018-06-05T16:37:42.208Z,12.67
2018-06-05T16:40:11.840Z,5.83
2018-06-05T16:42:40.136Z,5.70
2018-06-05T16:45:08.701Z,5.40
2018-06-05T16:47:36.962Z,5.73
2018-06-05T16:50:05.211Z,6.27
2018-06-05T16:52:33.473Z,4.70
2018-06-05T16:55:01.824Z,5.43
2018-06-05T16:57:30.112Z,5.60
2018-06-05T16:59:58.408Z,6.20
2018-06-05T17:02:26.694Z,6.13
2018-06-05T17:04:54.930Z,5.03
2018-06-05T17:07:23.226Z,5.77
2018-06-05T17:09:51.560Z,4.80
2018-06-05T17:12:19.887Z,5.23
2018-06-05T17:14:48.105Z,4.50
2018-06-05T17:17:16.395Z,5.03
2018-06-05T17:19:44.755Z,5.27
2018-06-05T17:22:12.973Z,4.80
2018-06-05T17:24:41.249Z,5.30
2018-06-05T17:27:09.558Z,4.57
2018-06-05T17:29:37.868Z,4.00
2018-06-05T17:32:06.184Z,4.93
2018-06-05T17:34:34.460Z,4.20
2018-06-05T17:37:02.771Z,4.20
2018-06-05T17:39:31.056Z,4.57
2018-06-05T17:41:59.369Z,4.40
2018-06-05T17:44:27.708Z,3.97
2018-06-05T17:46:55.994Z,3.67
2018-06-05T17:49:24.243Z,3.60
2018-06-05T17:51:52.528Z,7.97
2018-06-05T17:54:20.852Z,13.87
2018-06-05T17:56:49.221Z,5.43
2018-06-05T17:59:17.490Z,4.17
2018-06-05T18:01:45.767Z,4.10
2018-06-05T18:04:14.036Z,4.00
2018-06-05T18:06:42.312Z,5.07
2018-06-05T18:09:10.604Z,4.40
2018-06-05T18:11:38.841Z,4.60
2018-06-05T18:14:07.099Z,4.10
2018-06-05T18:16:35.408Z,4.90
2018-06-05T18:19:03.667Z,4.37
2018-06-05T18:21:32.085Z,4.90
2018-06-05T18:24:00.330Z,6.97
2018-06-05T18:26:29.388Z,4.57
2018-06-05T18:28:57.693Z,4.27
2018-06-05T18:31:25.998Z,4.87
2018-06-05T18:33:54.319Z,4.37
2018-06-05T18:36:22.571Z,4.27
2018-06-05T18:38:50.854Z,4.60
2018-06-05T18:41:19.108Z,4.93
2018-06-05T18:43:47.433Z,5.03
2018-06-05T18:46:15.795Z,4.47
2018-06-05T18:48:44.059Z,4.80
2018-06-05T18:51:12.371Z,4.70
2018-06-05T18:53:40.632Z,5.17
2018-06-05T18:56:08.873Z,4.53
2018-06-05T18:58:37.187Z,4.20
2018-06-05T19:01:05.508Z,5.07
2018-06-05T19:03:33.768Z,5.73
2018-06-05T19:06:02.032Z,4.17
2018-06-05T19:08:31.480Z,4.70
2018-06-05T19:10:59.845Z,5.60
2018-06-05T19:13:28.126Z,5.23
2018-06-05T19:15:56.330Z,5.23
2018-06-05T19:18:24.584Z,4.50
2018-06-05T19:20:52.868Z,4.73
2018-06-05T19:23:21.217Z,4.50
2018-06-05T19:25:49.503Z,5.23
2018-06-05T19:28:17.806Z,4.63
2018-06-05T19:30:46.846Z,5.90
2018-06-05T19:33:15.093Z,6.87
2018-06-05T19:35:43.475Z,18.00
2018-06-05T19:38:11.823Z,20.73
2018-06-05T19:40:40.133Z,12.40
2018-06-05T19:43:08.429Z,9.27
2018-06-05T19:45:36.749Z,7.60
2018-06-05T19:48:05.108Z,7.80
2018-06-05T19:50:33.465Z,7.40
2018-06-05T19:53:01.781Z,6.70
2018-06-05T19:55:30.039Z,6.83
2018-06-05T19:57:58.924Z,6.40
2018-06-05T20:00:27.244Z,6.83
2018-06-05T20:02:55.506Z,6.80
2018-06-05T20:05:23.765Z,7.03
2018-06-05T20:07:51.998Z,6.97
2018-06-05T20:10:20.200Z,6.40
2018-06-05T20:12:49.605Z,7.50
2018-06-05T20:15:17.874Z,7.93
2018-06-05T20:17:46.113Z,7.67
2018-06-05T20:20:14.409Z,7.50
2018-06-05T20:22:42.731Z,7.50
2018-06-05T20:25:11.056Z,7.73
2018-06-05T20:27:39.325Z,6.93
2018-06-05T20:30:07.663Z,8.00
2018-06-05T20:32:35.908Z,8.00
2018-06-05T20:35:04.437Z,8.23
2018-06-05T20:37:32.878Z,9.83
2018-06-05T20:40:01.114Z,8.90
2018-06-05T20:42:29.355Z,8.70
2018-06-05T20:44:57.667Z,9.40
2018-06-05T20:47:25.972Z,8.83
2018-06-05T20:49:54.302Z,9.17
2018-06-05T20:52:22.547Z,9.60
2018-06-05T20:54:51.142Z,8.73
2018-06-05T20:57:19.387Z,9.10
2018-06-05T20:59:47.714Z,9.70
2018-06-05T21:02:16.112Z,11.77
2018-06-05T21:04:44.450Z,10.70
2018-06-05T21:07:12.868Z,10.20
2018-06-05T21:09:41.205Z,11.60
2018-06-05T21:12:09.499Z,10.60
2018-06-05T21:14:37.857Z,9.47
2018-06-05T21:17:06.203Z,10.33
2018-06-05T21:19:34.431Z,11.03
2018-06-05T21:22:02.748Z,10.23
2018-06-05T21:24:31.048Z,16.90
2018-06-05T21:26:59.466Z,16.37
2018-06-05T21:29:27.691Z,16.13
2018-06-05T21:31:55.994Z,22.40
2018-06-05T21:34:24.276Z,19.43
2018-06-05T21:36:52.548Z,14.47
2018-06-05T21:39:20.931Z,11.60
2018-06-05T21:41:49.229Z,11.07
2018-06-05T21:44:17.517Z,11.80
2018-06-05T21:46:45.831Z,11.20
2018-06-05T21:49:14.207Z,11.03
2018-06-05T21:51:42.601Z,10.80
2018-06-05T21:54:11.456Z,11.10
2018-06-05T21:56:39.769Z,10.73
2018-06-05T21:59:08.060Z,9.27
2018-06-05T22:01:36.384Z,11.10
2018-06-05T22:04:06.483Z,10.30
2018-06-05T22:06:34.771Z,10.90
2018-06-05T22:09:03.420Z,11.47
2018-06-05T22:11:31.723Z,11.73
2018-06-05T22:14:00.148Z,10.87
2018-06-05T22:16:28.500Z,11.03
2018-06-05T22:18:56.735Z,11.80
2018-06-05T22:21:25.128Z,10.93
2018-06-05T22:23:53.397Z,11.37
2018-06-05T22:26:21.639Z,11.93
2018-06-05T22:28:50.014Z,11.60
2018-06-05T22:31:18.233Z,10.67
2018-06-05T22:33:46.540Z,11.50
2018-06-05T22:36:14.876Z,11.87
2018-06-05T22:38:43.104Z,11.23
2018-06-05T22:41:11.404Z,11.60
2018-06-05T22:43:39.767Z,10.30
2018-06-05T22:46:08.093Z,12.00
2018-06-05T22:48:36.425Z,11.80
2018-06-05T22:51:05.558Z,12.23
2018-06-05T22:53:33.916Z,11.00
2018-06-05T22:56:02.150Z,12.70
2018-06-05T22:58:30.461Z,12.40
2018-06-05T23:00:58.879Z,13.87
2018-06-05T23:03:27.619Z,12.17
2018-06-05T23:05:56.075Z,13.03
2018-06-05T23:08:24.420Z,11.80
2018-06-05T23:10:52.690Z,13.43
2018-06-05T23:13:20.992Z,11.60
2018-06-05T23:15:49.319Z,12.00
2018-06-05T23:18:18.168Z,12.40
2018-06-05T23:20:46.478Z,12.23
2018-06-05T23:23:14.894Z,12.40
2018-06-05T23:25:43.158Z,12.07
2018-06-05T23:28:11.427Z,12.70
2018-06-05T23:30:39.729Z,12.73
2018-06-05T23:33:08.010Z,13.07
2018-06-05T23:35:36.250Z,12.40
2018-06-05T23:38:04.636Z,12.40
2018-06-05T23:40:32.949Z,13.70
2018-06-05T23:43:01.287Z,12.10
2018-06-05T23:45:29.576Z,11.97
2018-06-05T23:47:57.850Z,13.00
2018-06-05T23:50:26.120Z,13.03
2018-06-05T23:52:55.044Z,12.67
2018-06-05T23:55:23.103Z,13.43
2018-06-05T23:57:51.383Z,11.70
